sensor_id;sensor_type;location;lat;lon;timestamp;temperature;humidity
2825;DHT22;1420;51.324;12.344;2023-07-16T00:00:31;21.90;99.90
2825;DHT22;1420;51.324;12.344;2023-07-16T00:02:58;22.10;99.90
2825;DHT22;1420;51.324;12.344;2023-07-16T00:05:25;22.00;99.90
2825;DHT22;1420;51.324;12.344;2023-07-16T00:07:53;22.30;99.90
2825;DHT22;1420;51.324;12.344;2023-07-16T00:10:20;22.30;99.90
2825;DHT22;1420;51.324;12.344;2023-07-16T00:12:47;22.70;99.90
2825;DHT22;1420;51.324;12.344;2023-07-16T00:15:14;22.40;99.90
2825;DHT22;1420;51.324;12.344;2023-07-16T00:17:41;21.80;99.90
2825;DHT22;1420;51.324;12.344;2023-07-16T00:20:09;21.70;99.90
2825;DHT22;1420;51.324;12.344;2023-07-16T00:22:37;21.40;99.90
2825;DHT22;1420;51.324;12.344;2023-07-16T00:25:06;21.60;99.90
2825;DHT22;1420;51.324;12.344;2023-07-16T00:27:33;21.60;99.90
2825;DHT22;1420;51.324;12.344;2023-07-16T00:30:00;21.50;99.90
2825;DHT22;1420;51.324;12.344;2023-07-16T00:32:27;21.30;99.90
2825;DHT22;1420;51.324;12.344;2023-07-16T00:34:54;21.40;99.90
2825;DHT22;1420;51.324;12.344;2023-07-16T00:37:22;20.80;99.90
2825;DHT22;1420;51.324;12.344;2023-07-16T00:39:50;20.70;99.90
2825;DHT22;1420;51.324;12.344;2023-07-16T00:42:18;20.70;99.90
2825;DHT22;1420;51.324;12.344;2023-07-16T00:44:46;20.60;99.90
2825;DHT22;1420;51.324;12.344;2023-07-16T00:47:14;20.50;99.90
2825;DHT22;1420;51.324;12.344;2023-07-16T00:49:42;20.50;99.90
2825;DHT22;1420;51.324;12.344;2023-07-16T00:52:11;20.50;99.90
2825;DHT22;1420;51.324;12.344;2023-07-16T00:54:38;20.50;99.90
2825;DHT22;1420;51.324;12.344;2023-07-16T00:57:06;20.50;99.90
2825;DHT22;1420;51.324;12.344;2023-07-16T00:59:33;20.40;99.90
2825;DHT22;1420;51.324;12.344;2023-07-16T01:02:01;20.50;99.90
2825;DHT22;1420;51.324;12.344;2023-07-16T01:04:28;20.50;99.90
2825;DHT22;1420;51.324;12.344;2023-07-16T01:06:55;20.60;99.90
2825;DHT22;1420;51.324;12.344;2023-07-16T01:09:22;20.60;99.90
2825;DHT22;1420;51.324;12.344;2023-07-16T01:11:49;20.90;99.90
2825;DHT22;1420;51.324;12.344;2023-07-16T01:14:17;20.80;99.90
2825;DHT22;1420;51.324;12.344;2023-07-16T01:16:44;21.20;99.90
2825;DHT22;1420;51.324;12.344;2023-07-16T01:19:11;20.90;99.90
2825;DHT22;1420;51.324;12.344;2023-07-16T01:21:51;21.00;99.90
2825;DHT22;1420;51.324;12.344;2023-07-16T01:25:29;21.70;99.90
2825;DHT22;1420;51.324;12.344;2023-07-16T01:27:10;21.70;99.90
2825;DHT22;1420;51.324;12.344;2023-07-16T01:29:35;21.80;99.90
2825;DHT22;1420;51.324;12.344;2023-07-16T01:32:00;21.20;99.90
2825;DHT22;1420;51.324;12.344;2023-07-16T01:34:28;21.00;99.90
2825;DHT22;1420;51.324;12.344;2023-07-16T01:36:54;21.10;99.90
2825;DHT22;1420;51.324;12.344;2023-07-16T01:39:22;21.10;99.90
2825;DHT22;1420;51.324;12.344;2023-07-16T01:41:49;20.90;99.90
2825;DHT22;1420;51.324;12.344;2023-07-16T01:44:16;20.80;99.90
2825;DHT22;1420;51.324;12.344;2023-07-16T01:46:43;20.70;99.90
2825;DHT22;1420;51.324;12.344;2023-07-16T01:49:10;20.70;99.90
2825;DHT22;1420;51.324;12.344;2023-07-16T01:51:37;20.90;99.90
2825;DHT22;1420;51.324;12.344;2023-07-16T01:54:05;21.00;99.90
2825;DHT22;1420;51.324;12.344;2023-07-16T01:56:32;21.60;99.90
2825;DHT22;1420;51.324;12.344;2023-07-16T01:58:59;21.60;99.90
2825;DHT22;1420;51.324;12.344;2023-07-16T02:01:26;21.70;99.90
2825;DHT22;1420;51.324;12.344;2023-07-16T02:03:53;21.60;99.90
2825;DHT22;1420;51.324;12.344;2023-07-16T02:06:21;21.70;99.90
2825;DHT22;1420;51.324;12.344;2023-07-16T02:08:48;21.50;99.90
2825;DHT22;1420;51.324;12.344;2023-07-16T02:11:15;21.00;99.90
2825;DHT22;1420;51.324;12.344;2023-07-16T02:13:43;20.60;99.90
2825;DHT22;1420;51.324;12.344;2023-07-16T02:16:11;20.90;99.90
2825;DHT22;1420;51.324;12.344;2023-07-16T02:18:39;20.90;99.90
2825;DHT22;1420;51.324;12.344;2023-07-16T02:21:07;21.30;99.90
2825;DHT22;1420;51.324;12.344;2023-07-16T02:23:35;21.40;99.90
2825;DHT22;1420;51.324;12.344;2023-07-16T02:26:03;21.30;99.90
2825;DHT22;1420;51.324;12.344;2023-07-16T02:28:31;21.60;99.90
2825;DHT22;1420;51.324;12.344;2023-07-16T02:30:59;21.60;99.90
2825;DHT22;1420;51.324;12.344;2023-07-16T02:33:26;21.60;99.90
2825;DHT22;1420;51.324;12.344;2023-07-16T02:35:54;21.60;99.90
2825;DHT22;1420;51.324;12.344;2023-07-16T02:38:21;21.70;99.90
2825;DHT22;1420;51.324;12.344;2023-07-16T02:40:48;21.60;99.90
2825;DHT22;1420;51.324;12.344;2023-07-16T02:43:16;21.30;99.90
2825;DHT22;1420;51.324;12.344;2023-07-16T02:45:43;21.30;99.90
2825;DHT22;1420;51.324;12.344;2023-07-16T02:48:10;21.60;99.90
2825;DHT22;1420;51.324;12.344;2023-07-16T02:50:37;21.60;99.90
2825;DHT22;1420;51.324;12.344;2023-07-16T02:53:05;21.50;99.90
2825;DHT22;1420;51.324;12.344;2023-07-16T02:55:32;21.50;99.90
2825;DHT22;1420;51.324;12.344;2023-07-16T02:57:59;21.50;99.90
2825;DHT22;1420;51.324;12.344;2023-07-16T03:00:26;21.80;99.90
2825;DHT22;1420;51.324;12.344;2023-07-16T03:02:53;21.70;99.90
2825;DHT22;1420;51.324;12.344;2023-07-16T03:05:20;21.70;99.90
2825;DHT22;1420;51.324;12.344;2023-07-16T03:07:48;21.60;99.90
2825;DHT22;1420;51.324;12.344;2023-07-16T03:10:15;21.60;99.90
2825;DHT22;1420;51.324;12.344;2023-07-16T03:12:42;21.60;99.90
2825;DHT22;1420;51.324;12.344;2023-07-16T03:15:10;21.10;99.90
2825;DHT22;1420;51.324;12.344;2023-07-16T03:17:37;21.00;99.90
2825;DHT22;1420;51.324;12.344;2023-07-16T03:20:05;21.00;99.90
2825;DHT22;1420;51.324;12.344;2023-07-16T03:22:32;20.80;99.90
2825;DHT22;1420;51.324;12.344;2023-07-16T03:24:59;20.60;99.90
2825;DHT22;1420;51.324;12.344;2023-07-16T03:27:26;20.50;99.90
2825;DHT22;1420;51.324;12.344;2023-07-16T03:29:53;20.70;99.90
2825;DHT22;1420;51.324;12.344;2023-07-16T03:32:21;20.60;99.90
2825;DHT22;1420;51.324;12.344;2023-07-16T03:34:48;20.80;99.90
2825;DHT22;1420;51.324;12.344;2023-07-16T03:37:15;20.50;99.90
2825;DHT22;1420;51.324;12.344;2023-07-16T03:39:42;20.50;99.90
2825;DHT22;1420;51.324;12.344;2023-07-16T03:42:09;21.20;99.90
2825;DHT22;1420;51.324;12.344;2023-07-16T03:44:37;21.40;99.90
2825;DHT22;1420;51.324;12.344;2023-07-16T03:47:04;21.40;99.90
2825;DHT22;1420;51.324;12.344;2023-07-16T03:49:31;21.50;99.90
2825;DHT22;1420;51.324;12.344;2023-07-16T03:51:59;21.70;99.90
2825;DHT22;1420;51.324;12.344;2023-07-16T03:54:27;21.20;99.90
2825;DHT22;1420;51.324;12.344;2023-07-16T03:56:54;21.10;99.90
2825;DHT22;1420;51.324;12.344;2023-07-16T03:59:21;20.80;99.90
2825;DHT22;1420;51.324;12.344;2023-07-16T04:01:48;20.80;99.90
2825;DHT22;1420;51.324;12.344;2023-07-16T04:04:15;20.80;99.90
2825;DHT22;1420;51.324;12.344;2023-07-16T04:06:43;20.80;99.90
2825;DHT22;1420;51.324;12.344;2023-07-16T04:09:10;21.30;99.90
2825;DHT22;1420;51.324;12.344;2023-07-16T04:11:37;21.30;99.90
2825;DHT22;1420;51.324;12.344;2023-07-16T04:14:04;21.20;99.90
2825;DHT22;1420;51.324;12.344;2023-07-16T04:16:31;21.20;99.90
2825;DHT22;1420;51.324;12.344;2023-07-16T04:18:59;21.30;99.90
2825;DHT22;1420;51.324;12.344;2023-07-16T04:21:26;21.40;99.90
2825;DHT22;1420;51.324;12.344;2023-07-16T04:23:53;21.20;99.90
2825;DHT22;1420;51.324;12.344;2023-07-16T04:26:20;21.50;99.90
2825;DHT22;1420;51.324;12.344;2023-07-16T04:28:47;21.40;99.90
2825;DHT22;1420;51.324;12.344;2023-07-16T04:31:15;21.40;99.90
2825;DHT22;1420;51.324;12.344;2023-07-16T04:33:42;21.50;99.90
2825;DHT22;1420;51.324;12.344;2023-07-16T04:36:09;21.60;99.90
2825;DHT22;1420;51.324;12.344;2023-07-16T04:38:36;21.60;99.90
2825;DHT22;1420;51.324;12.344;2023-07-16T04:41:03;21.60;99.90
2825;DHT22;1420;51.324;12.344;2023-07-16T04:43:31;21.80;99.90
2825;DHT22;1420;51.324;12.344;2023-07-16T04:45:58;21.60;99.90
2825;DHT22;1420;51.324;12.344;2023-07-16T04:48:26;22.00;99.90
2825;DHT22;1420;51.324;12.344;2023-07-16T04:50:52;22.00;99.90
2825;DHT22;1420;51.324;12.344;2023-07-16T04:53:20;22.50;99.90
2825;DHT22;1420;51.324;12.344;2023-07-16T04:55:47;22.30;99.90
2825;DHT22;1420;51.324;12.344;2023-07-16T04:58:14;22.30;99.90
2825;DHT22;1420;51.324;12.344;2023-07-16T05:00:41;22.30;99.90
2825;DHT22;1420;51.324;12.344;2023-07-16T05:03:08;22.20;99.90
2825;DHT22;1420;51.324;12.344;2023-07-16T05:05:36;22.40;99.90
2825;DHT22;1420;51.324;12.344;2023-07-16T05:08:03;22.20;99.90
2825;DHT22;1420;51.324;12.344;2023-07-16T05:10:30;22.20;99.90
2825;DHT22;1420;51.324;12.344;2023-07-16T05:12:57;22.40;99.90
2825;DHT22;1420;51.324;12.344;2023-07-16T05:15:24;22.30;99.90
2825;DHT22;1420;51.324;12.344;2023-07-16T05:17:52;22.30;99.90
2825;DHT22;1420;51.324;12.344;2023-07-16T05:20:19;22.30;99.90
2825;DHT22;1420;51.324;12.344;2023-07-16T05:22:46;22.50;99.90
2825;DHT22;1420;51.324;12.344;2023-07-16T05:25:13;22.30;99.90
2825;DHT22;1420;51.324;12.344;2023-07-16T05:27:40;22.60;99.90
2825;DHT22;1420;51.324;12.344;2023-07-16T05:30:08;22.70;99.90
2825;DHT22;1420;51.324;12.344;2023-07-16T05:32:35;22.90;99.90
2825;DHT22;1420;51.324;12.344;2023-07-16T05:35:03;22.90;99.90
2825;DHT22;1420;51.324;12.344;2023-07-16T05:37:30;22.90;99.90
2825;DHT22;1420;51.324;12.344;2023-07-16T05:39:57;23.00;99.90
2825;DHT22;1420;51.324;12.344;2023-07-16T05:42:24;22.90;99.90
2825;DHT22;1420;51.324;12.344;2023-07-16T05:44:52;23.30;99.90
2825;DHT22;1420;51.324;12.344;2023-07-16T05:47:20;23.20;99.90
2825;DHT22;1420;51.324;12.344;2023-07-16T05:49:48;23.00;99.90
2825;DHT22;1420;51.324;12.344;2023-07-16T05:52:16;23.20;99.90
2825;DHT22;1420;51.324;12.344;2023-07-16T05:54:44;23.70;99.90
2825;DHT22;1420;51.324;12.344;2023-07-16T05:57:11;24.10;99.90
2825;DHT22;1420;51.324;12.344;2023-07-16T05:59:39;24.10;99.90
2825;DHT22;1420;51.324;12.344;2023-07-16T06:02:06;24.60;99.90
2825;DHT22;1420;51.324;12.344;2023-07-16T06:04:33;25.00;99.90
2825;DHT22;1420;51.324;12.344;2023-07-16T06:07:01;25.40;99.90
2825;DHT22;1420;51.324;12.344;2023-07-16T06:09:28;25.60;99.90
2825;DHT22;1420;51.324;12.344;2023-07-16T06:11:55;25.90;99.90
2825;DHT22;1420;51.324;12.344;2023-07-16T06:14:22;25.80;99.90
2825;DHT22;1420;51.324;12.344;2023-07-16T06:16:49;25.00;99.90
2825;DHT22;1420;51.324;12.344;2023-07-16T06:19:17;24.30;99.90
2825;DHT22;1420;51.324;12.344;2023-07-16T06:21:45;24.60;99.90
2825;DHT22;1420;51.324;12.344;2023-07-16T06:24:12;24.50;99.90
2825;DHT22;1420;51.324;12.344;2023-07-16T06:26:40;24.30;99.90
2825;DHT22;1420;51.324;12.344;2023-07-16T06:29:07;24.70;99.90
2825;DHT22;1420;51.324;12.344;2023-07-16T06:31:35;24.80;99.90
2825;DHT22;1420;51.324;12.344;2023-07-16T06:34:02;24.80;99.90
2825;DHT22;1420;51.324;12.344;2023-07-16T06:36:29;24.60;99.90
2825;DHT22;1420;51.324;12.344;2023-07-16T06:38:56;24.10;99.90
2825;DHT22;1420;51.324;12.344;2023-07-16T06:41:24;25.00;99.90
2825;DHT22;1420;51.324;12.344;2023-07-16T06:43:52;25.00;99.90
2825;DHT22;1420;51.324;12.344;2023-07-16T06:46:19;25.70;99.90
2825;DHT22;1420;51.324;12.344;2023-07-16T06:48:46;25.80;99.90
2825;DHT22;1420;51.324;12.344;2023-07-16T06:51:14;26.10;98.50
2825;DHT22;1420;51.324;12.344;2023-07-16T06:53:41;26.20;96.50
2825;DHT22;1420;51.324;12.344;2023-07-16T06:56:08;26.70;93.10
2825;DHT22;1420;51.324;12.344;2023-07-16T06:58:36;26.40;91.70
2825;DHT22;1420;51.324;12.344;2023-07-16T07:01:03;26.30;91.70
2825;DHT22;1420;51.324;12.344;2023-07-16T07:03:31;26.40;90.50
2825;DHT22;1420;51.324;12.344;2023-07-16T07:05:58;26.40;91.70
2825;DHT22;1420;51.324;12.344;2023-07-16T07:08:25;26.40;91.00
2825;DHT22;1420;51.324;12.344;2023-07-16T07:10:52;26.60;89.50
2825;DHT22;1420;51.324;12.344;2023-07-16T07:13:19;26.30;90.30
2825;DHT22;1420;51.324;12.344;2023-07-16T07:15:50;26.90;85.80
2825;DHT22;1420;51.324;12.344;2023-07-16T07:18:17;26.90;83.50
2825;DHT22;1420;51.324;12.344;2023-07-16T07:20:45;27.40;80.00
2825;DHT22;1420;51.324;12.344;2023-07-16T07:23:12;27.30;77.90
2825;DHT22;1420;51.324;12.344;2023-07-16T07:25:40;27.00;77.40
2825;DHT22;1420;51.324;12.344;2023-07-16T07:28:08;27.30;73.70
2825;DHT22;1420;51.324;12.344;2023-07-16T07:30:35;27.20;73.70
2825;DHT22;1420;51.324;12.344;2023-07-16T07:33:02;27.30;74.40
2825;DHT22;1420;51.324;12.344;2023-07-16T07:35:29;27.30;72.70
2825;DHT22;1420;51.324;12.344;2023-07-16T07:37:57;28.60;67.10
2825;DHT22;1420;51.324;12.344;2023-07-16T07:40:25;28.60;66.90
2825;DHT22;1420;51.324;12.344;2023-07-16T07:42:52;28.70;62.50
2825;DHT22;1420;51.324;12.344;2023-07-16T07:45:19;27.80;64.10
2825;DHT22;1420;51.324;12.344;2023-07-16T07:47:47;28.30;60.70
2825;DHT22;1420;51.324;12.344;2023-07-16T07:50:14;28.20;60.30
2825;DHT22;1420;51.324;12.344;2023-07-16T07:52:41;28.30;60.10
2825;DHT22;1420;51.324;12.344;2023-07-16T07:55:09;28.10;61.00
2825;DHT22;1420;51.324;12.344;2023-07-16T07:57:36;28.00;60.60
2825;DHT22;1420;51.324;12.344;2023-07-16T08:00:03;28.10;57.10
2825;DHT22;1420;51.324;12.344;2023-07-16T08:02:32;28.60;57.50
2825;DHT22;1420;51.324;12.344;2023-07-16T08:04:59;28.50;57.50
2825;DHT22;1420;51.324;12.344;2023-07-16T08:07:26;28.00;55.90
2825;DHT22;1420;51.324;12.344;2023-07-16T08:09:53;27.40;57.00
2825;DHT22;1420;51.324;12.344;2023-07-16T08:12:21;27.70;58.30
2825;DHT22;1420;51.324;12.344;2023-07-16T08:14:49;28.10;58.00
2825;DHT22;1420;51.324;12.344;2023-07-16T08:17:16;28.10;57.70
2825;DHT22;1420;51.324;12.344;2023-07-16T08:19:44;28.30;56.90
2825;DHT22;1420;51.324;12.344;2023-07-16T08:22:11;28.70;55.20
2825;DHT22;1420;51.324;12.344;2023-07-16T08:24:39;28.20;52.40
2825;DHT22;1420;51.324;12.344;2023-07-16T08:27:06;28.20;52.30
2825;DHT22;1420;51.324;12.344;2023-07-16T08:29:35;28.20;50.60
2825;DHT22;1420;51.324;12.344;2023-07-16T08:32:00;28.50;51.60
2825;DHT22;1420;51.324;12.344;2023-07-16T08:34:28;28.60;50.90
2825;DHT22;1420;51.324;12.344;2023-07-16T08:36:56;29.00;49.90
2825;DHT22;1420;51.324;12.344;2023-07-16T08:39:24;29.00;49.80
2825;DHT22;1420;51.324;12.344;2023-07-16T08:41:51;29.00;48.10
2825;DHT22;1420;51.324;12.344;2023-07-16T08:44:18;28.90;48.30
2825;DHT22;1420;51.324;12.344;2023-07-16T08:46:46;28.80;49.30
2825;DHT22;1420;51.324;12.344;2023-07-16T08:49:13;28.80;49.30
2825;DHT22;1420;51.324;12.344;2023-07-16T08:51:40;29.20;48.00
2825;DHT22;1420;51.324;12.344;2023-07-16T08:54:08;29.30;46.70
2825;DHT22;1420;51.324;12.344;2023-07-16T08:56:36;29.10;46.90
2825;DHT22;1420;51.324;12.344;2023-07-16T08:59:04;29.10;45.70
2825;DHT22;1420;51.324;12.344;2023-07-16T09:01:31;29.10;45.90
2825;DHT22;1420;51.324;12.344;2023-07-16T09:03:58;29.10;43.80
2825;DHT22;1420;51.324;12.344;2023-07-16T09:06:25;28.30;40.80
2825;DHT22;1420;51.324;12.344;2023-07-16T09:08:52;28.60;43.20
2825;DHT22;1420;51.324;12.344;2023-07-16T09:11:20;28.50;40.90
2825;DHT22;1420;51.324;12.344;2023-07-16T09:13:47;28.90;40.60
2825;DHT22;1420;51.324;12.344;2023-07-16T09:16:14;28.70;40.60
2825;DHT22;1420;51.324;12.344;2023-07-16T09:18:41;28.50;42.50
2825;DHT22;1420;51.324;12.344;2023-07-16T09:21:09;28.10;41.40
2825;DHT22;1420;51.324;12.344;2023-07-16T09:23:37;28.00;41.30
2825;DHT22;1420;51.324;12.344;2023-07-16T09:26:04;28.30;43.00
2825;DHT22;1420;51.324;12.344;2023-07-16T09:28:31;28.80;41.30
2825;DHT22;1420;51.324;12.344;2023-07-16T09:31:04;27.80;42.00
2825;DHT22;1420;51.324;12.344;2023-07-16T09:33:31;27.80;42.00
2825;DHT22;1420;51.324;12.344;2023-07-16T09:35:57;27.80;42.00
2825;DHT22;1420;51.324;12.344;2023-07-16T09:38:25;27.80;43.90
2825;DHT22;1420;51.324;12.344;2023-07-16T09:40:52;28.40;40.20
2825;DHT22;1420;51.324;12.344;2023-07-16T09:43:19;28.30;38.90
2825;DHT22;1420;51.324;12.344;2023-07-16T09:45:46;28.70;38.00
2825;DHT22;1420;51.324;12.344;2023-07-16T09:48:14;29.00;37.50
2825;DHT22;1420;51.324;12.344;2023-07-16T09:50:43;28.50;38.50
2825;DHT22;1420;51.324;12.344;2023-07-16T09:53:09;28.70;36.00
2825;DHT22;1420;51.324;12.344;2023-07-16T09:55:37;28.60;36.00
2825;DHT22;1420;51.324;12.344;2023-07-16T09:58:06;28.60;37.20
2825;DHT22;1420;51.324;12.344;2023-07-16T10:00:31;28.90;37.10
2825;DHT22;1420;51.324;12.344;2023-07-16T10:02:59;28.00;37.80
2825;DHT22;1420;51.324;12.344;2023-07-16T10:05:27;27.90;38.10
2825;DHT22;1420;51.324;12.344;2023-07-16T10:07:54;28.50;36.40
2825;DHT22;1420;51.324;12.344;2023-07-16T10:10:21;28.90;37.00
2825;DHT22;1420;51.324;12.344;2023-07-16T10:12:56;28.60;38.30
2825;DHT22;1420;51.324;12.344;2023-07-16T10:15:27;28.80;37.50
2825;DHT22;1420;51.324;12.344;2023-07-16T10:17:53;28.80;37.10
2825;DHT22;1420;51.324;12.344;2023-07-16T10:20:28;28.80;36.30
2825;DHT22;1420;51.324;12.344;2023-07-16T10:22:54;28.90;35.60
2825;DHT22;1420;51.324;12.344;2023-07-16T10:25:22;28.50;37.20
2825;DHT22;1420;51.324;12.344;2023-07-16T10:27:50;29.00;37.00
2825;DHT22;1420;51.324;12.344;2023-07-16T10:30:17;28.90;37.00
2825;DHT22;1420;51.324;12.344;2023-07-16T10:32:44;29.20;33.90
2825;DHT22;1420;51.324;12.344;2023-07-16T10:35:11;29.70;36.70
2825;DHT22;1420;51.324;12.344;2023-07-16T10:37:39;28.90;37.20
2825;DHT22;1420;51.324;12.344;2023-07-16T10:40:11;28.90;36.60
2825;DHT22;1420;51.324;12.344;2023-07-16T10:42:39;28.90;36.50
2825;DHT22;1420;51.324;12.344;2023-07-16T10:45:06;28.50;37.40
2825;DHT22;1420;51.324;12.344;2023-07-16T10:47:35;28.60;37.40
2825;DHT22;1420;51.324;12.344;2023-07-16T10:50:04;28.50;37.40
2825;DHT22;1420;51.324;12.344;2023-07-16T10:52:32;28.70;36.60
2825;DHT22;1420;51.324;12.344;2023-07-16T10:55:00;28.90;35.50
2825;DHT22;1420;51.324;12.344;2023-07-16T10:57:27;28.90;35.50
2825;DHT22;1420;51.324;12.344;2023-07-16T10:59:55;29.10;35.30
2825;DHT22;1420;51.324;12.344;2023-07-16T11:02:22;28.30;37.50
2825;DHT22;1420;51.324;12.344;2023-07-16T11:04:50;28.30;36.10
2825;DHT22;1420;51.324;12.344;2023-07-16T11:07:17;28.20;36.30
2825;DHT22;1420;51.324;12.344;2023-07-16T11:09:44;28.20;35.60
2825;DHT22;1420;51.324;12.344;2023-07-16T11:12:12;28.70;36.50
2825;DHT22;1420;51.324;12.344;2023-07-16T11:14:42;28.80;35.30
2825;DHT22;1420;51.324;12.344;2023-07-16T11:17:07;29.00;34.80
2825;DHT22;1420;51.324;12.344;2023-07-16T11:19:35;29.00;35.00
2825;DHT22;1420;51.324;12.344;2023-07-16T11:22:03;28.90;35.00
2825;DHT22;1420;51.324;12.344;2023-07-16T11:24:37;29.20;35.10
2825;DHT22;1420;51.324;12.344;2023-07-16T11:27:05;29.30;33.70
2825;DHT22;1420;51.324;12.344;2023-07-16T11:29:34;29.00;35.20
2825;DHT22;1420;51.324;12.344;2023-07-16T11:32:01;28.90;34.60
2825;DHT22;1420;51.324;12.344;2023-07-16T11:34:29;29.30;34.00
2825;DHT22;1420;51.324;12.344;2023-07-16T11:37:08;29.30;35.00
2825;DHT22;1420;51.324;12.344;2023-07-16T11:39:35;29.20;34.90
2825;DHT22;1420;51.324;12.344;2023-07-16T11:42:03;28.70;35.70
2825;DHT22;1420;51.324;12.344;2023-07-16T11:44:33;28.80;35.00
2825;DHT22;1420;51.324;12.344;2023-07-16T11:47:01;29.20;33.50
2825;DHT22;1420;51.324;12.344;2023-07-16T11:49:29;28.70;35.00
2825;DHT22;1420;51.324;12.344;2023-07-16T11:51:56;28.70;35.10
2825;DHT22;1420;51.324;12.344;2023-07-16T11:54:23;28.50;35.30
2825;DHT22;1420;51.324;12.344;2023-07-16T11:56:50;28.90;32.80
2825;DHT22;1420;51.324;12.344;2023-07-16T11:59:18;29.80;33.50
2825;DHT22;1420;51.324;12.344;2023-07-16T12:01:46;29.80;33.40
2825;DHT22;1420;51.324;12.344;2023-07-16T12:04:13;29.40;33.40
2825;DHT22;1420;51.324;12.344;2023-07-16T12:06:40;29.50;33.60
2825;DHT22;1420;51.324;12.344;2023-07-16T12:09:08;29.20;31.40
2825;DHT22;1420;51.324;12.344;2023-07-16T12:11:35;29.20;31.30
2825;DHT22;1420;51.324;12.344;2023-07-16T12:14:02;29.60;32.30
2825;DHT22;1420;51.324;12.344;2023-07-16T12:16:29;29.30;33.90
2825;DHT22;1420;51.324;12.344;2023-07-16T12:18:57;28.90;32.60
2825;DHT22;1420;51.324;12.344;2023-07-16T12:21:25;28.80;31.70
2825;DHT22;1420;51.324;12.344;2023-07-16T12:23:52;28.90;33.60
2825;DHT22;1420;51.324;12.344;2023-07-16T12:26:19;28.80;32.60
2825;DHT22;1420;51.324;12.344;2023-07-16T12:28:46;28.70;32.80
2825;DHT22;1420;51.324;12.344;2023-07-16T12:31:14;28.80;31.90
2825;DHT22;1420;51.324;12.344;2023-07-16T12:33:41;29.00;33.20
2825;DHT22;1420;51.324;12.344;2023-07-16T12:36:09;29.00;32.20
2825;DHT22;1420;51.324;12.344;2023-07-16T12:38:36;28.90;32.00
2825;DHT22;1420;51.324;12.344;2023-07-16T12:41:03;29.20;31.40
2825;DHT22;1420;51.324;12.344;2023-07-16T12:43:30;28.90;31.50
2825;DHT22;1420;51.324;12.344;2023-07-16T12:45:58;28.80;32.50
2825;DHT22;1420;51.324;12.344;2023-07-16T12:48:25;28.90;31.60
2825;DHT22;1420;51.324;12.344;2023-07-16T12:50:52;29.10;30.40
2825;DHT22;1420;51.324;12.344;2023-07-16T12:53:20;29.50;28.20
2825;DHT22;1420;51.324;12.344;2023-07-16T12:55:47;29.50;28.20
2825;DHT22;1420;51.324;12.344;2023-07-16T12:58:14;29.10;30.00
2825;DHT22;1420;51.324;12.344;2023-07-16T13:00:42;29.00;30.00
2825;DHT22;1420;51.324;12.344;2023-07-16T13:03:09;29.30;30.20
2825;DHT22;1420;51.324;12.344;2023-07-16T13:05:38;29.30;29.90
2825;DHT22;1420;51.324;12.344;2023-07-16T13:08:05;29.20;29.50
2825;DHT22;1420;51.324;12.344;2023-07-16T13:10:32;29.30;30.80
2825;DHT22;1420;51.324;12.344;2023-07-16T13:12:59;29.00;30.50
2825;DHT22;1420;51.324;12.344;2023-07-16T13:15:26;28.80;30.00
2825;DHT22;1420;51.324;12.344;2023-07-16T13:17:54;28.80;29.30
2825;DHT22;1420;51.324;12.344;2023-07-16T13:20:21;28.70;29.30
2825;DHT22;1420;51.324;12.344;2023-07-16T13:22:49;28.60;31.00
2825;DHT22;1420;51.324;12.344;2023-07-16T13:25:16;28.70;32.20
2825;DHT22;1420;51.324;12.344;2023-07-16T13:27:43;28.70;32.10
2825;DHT22;1420;51.324;12.344;2023-07-16T13:30:11;28.60;32.20
2825;DHT22;1420;51.324;12.344;2023-07-16T13:32:38;28.30;32.50
2825;DHT22;1420;51.324;12.344;2023-07-16T13:35:05;28.40;32.30
2825;DHT22;1420;51.324;12.344;2023-07-16T13:37:33;28.50;31.90
2825;DHT22;1420;51.324;12.344;2023-07-16T13:40:00;28.60;32.10
2825;DHT22;1420;51.324;12.344;2023-07-16T13:42:27;29.00;31.50
2825;DHT22;1420;51.324;12.344;2023-07-16T13:44:54;28.80;31.80
2825;DHT22;1420;51.324;12.344;2023-07-16T13:47:21;28.70;32.30
2825;DHT22;1420;51.324;12.344;2023-07-16T13:49:50;28.60;31.20
2825;DHT22;1420;51.324;12.344;2023-07-16T13:52:17;28.50;31.10
2825;DHT22;1420;51.324;12.344;2023-07-16T13:54:44;28.40;29.80
2825;DHT22;1420;51.324;12.344;2023-07-16T13:57:11;28.50;31.30
2825;DHT22;1420;51.324;12.344;2023-07-16T13:59:38;28.70;31.50
2825;DHT22;1420;51.324;12.344;2023-07-16T14:02:05;28.30;31.90
2825;DHT22;1420;51.324;12.344;2023-07-16T14:04:33;28.50;32.50
2825;DHT22;1420;51.324;12.344;2023-07-16T14:07:01;28.70;30.80
2825;DHT22;1420;51.324;12.344;2023-07-16T14:09:28;28.70;30.70
2825;DHT22;1420;51.324;12.344;2023-07-16T14:11:55;28.60;31.90
2825;DHT22;1420;51.324;12.344;2023-07-16T14:14:22;28.70;32.10
2825;DHT22;1420;51.324;12.344;2023-07-16T14:16:50;28.70;30.60
2825;DHT22;1420;51.324;12.344;2023-07-16T14:19:17;28.50;32.50
2825;DHT22;1420;51.324;12.344;2023-07-16T14:21:44;28.40;31.70
2825;DHT22;1420;51.324;12.344;2023-07-16T14:24:11;28.50;31.10
2825;DHT22;1420;51.324;12.344;2023-07-16T14:26:38;28.70;31.80
2825;DHT22;1420;51.324;12.344;2023-07-16T14:29:06;28.60;29.70
2825;DHT22;1420;51.324;12.344;2023-07-16T14:31:34;28.80;30.00
2825;DHT22;1420;51.324;12.344;2023-07-16T14:34:01;28.70;30.00
2825;DHT22;1420;51.324;12.344;2023-07-16T14:36:28;28.90;30.20
2825;DHT22;1420;51.324;12.344;2023-07-16T14:38:55;28.80;29.80
2825;DHT22;1420;51.324;12.344;2023-07-16T14:41:23;28.70;29.10
2825;DHT22;1420;51.324;12.344;2023-07-16T14:43:50;28.40;30.60
2825;DHT22;1420;51.324;12.344;2023-07-16T14:46:17;28.40;29.20
2825;DHT22;1420;51.324;12.344;2023-07-16T14:48:45;28.50;30.00
2825;DHT22;1420;51.324;12.344;2023-07-16T14:51:12;28.40;30.00
2825;DHT22;1420;51.324;12.344;2023-07-16T14:53:39;28.50;31.90
2825;DHT22;1420;51.324;12.344;2023-07-16T14:56:07;28.40;30.50
2825;DHT22;1420;51.324;12.344;2023-07-16T14:58:34;28.50;30.10
2825;DHT22;1420;51.324;12.344;2023-07-16T15:01:01;28.50;28.80
2825;DHT22;1420;51.324;12.344;2023-07-16T15:03:29;28.50;29.30
2825;DHT22;1420;51.324;12.344;2023-07-16T15:05:58;28.20;30.80
2825;DHT22;1420;51.324;12.344;2023-07-16T15:08:25;28.10;30.70
2825;DHT22;1420;51.324;12.344;2023-07-16T15:10:53;28.20;29.60
2825;DHT22;1420;51.324;12.344;2023-07-16T15:13:21;28.20;31.60
2825;DHT22;1420;51.324;12.344;2023-07-16T15:15:49;28.00;29.70
2825;DHT22;1420;51.324;12.344;2023-07-16T15:18:16;28.10;30.40
2825;DHT22;1420;51.324;12.344;2023-07-16T15:20:43;28.20;28.90
2825;DHT22;1420;51.324;12.344;2023-07-16T15:23:11;28.00;29.60
2825;DHT22;1420;51.324;12.344;2023-07-16T15:25:39;28.10;30.50
2825;DHT22;1420;51.324;12.344;2023-07-16T15:28:05;28.10;29.20
2825;DHT22;1420;51.324;12.344;2023-07-16T15:30:32;28.00;30.40
2825;DHT22;1420;51.324;12.344;2023-07-16T15:32:59;28.00;29.70
2825;DHT22;1420;51.324;12.344;2023-07-16T15:35:27;28.20;29.60
2825;DHT22;1420;51.324;12.344;2023-07-16T15:37:54;28.20;29.60
2825;DHT22;1420;51.324;12.344;2023-07-16T15:40:22;28.00;31.30
2825;DHT22;1420;51.324;12.344;2023-07-16T15:42:49;28.10;29.80
2825;DHT22;1420;51.324;12.344;2023-07-16T15:45:17;27.90;29.10